createdAt,value
2018-09-20T00:01:09.890Z,10.30
2018-09-20T00:03:38.235Z,9.08
2018-09-20T00:06:06.551Z,7.60
2018-09-20T00:08:34.890Z,8.18
2018-09-20T00:11:03.201Z,7.50
2018-09-20T00:13:31.563Z,9.50
2018-09-20T00:15:59.925Z,7.78
2018-09-20T00:18:28.394Z,8.28
2018-09-20T00:20:56.726Z,7.22
2018-09-20T00:23:25.040Z,8.13
2018-09-20T00:25:53.411Z,9.15
2018-09-20T00:28:21.752Z,8.93
2018-09-20T00:30:50.367Z,10.38
2018-09-20T00:33:18.713Z,11.85
2018-09-20T00:35:47.276Z,7.53
2018-09-20T00:38:15.711Z,7.15
2018-09-20T00:40:44.100Z,8.05
2018-09-20T00:43:12.377Z,8.88
2018-09-20T00:45:40.727Z,7.05
2018-09-20T00:48:09.040Z,7.92
2018-09-20T00:50:37.588Z,9.40
2018-09-20T00:53:06.243Z,10.30
2018-09-20T00:55:34.547Z,7.27
2018-09-20T00:58:02.855Z,8.33
2018-09-20T01:00:31.222Z,9.15
2018-09-20T01:02:59.670Z,10.37
2018-09-20T01:05:28.098Z,9.08
2018-09-20T01:07:56.434Z,8.03
2018-09-20T01:10:24.763Z,7.28
2018-09-20T01:12:53.098Z,9.60
2018-09-20T01:15:21.427Z,12.05
2018-09-20T01:17:49.781Z,10.10
2018-09-20T01:20:18.182Z,9.30
2018-09-20T01:22:46.607Z,9.28
2018-09-20T01:25:14.950Z,10.47
2018-09-20T01:27:43.304Z,11.00
2018-09-20T01:30:11.703Z,11.05
2018-09-20T01:32:40.018Z,9.30
2018-09-20T01:35:08.402Z,7.90
2018-09-20T01:37:36.744Z,11.67
2018-09-20T01:40:05.106Z,8.57
2018-09-20T01:42:33.430Z,12.77
2018-09-20T01:45:01.808Z,10.17
2018-09-20T01:47:30.127Z,12.13
2018-09-20T01:49:58.495Z,15.47
2018-09-20T01:52:26.871Z,9.63
2018-09-20T01:54:55.205Z,12.43
2018-09-20T01:57:23.558Z,8.13
2018-09-20T01:59:51.885Z,8.90
2018-09-20T02:02:21.003Z,10.77
2018-09-20T02:04:49.482Z,10.63
2018-09-20T02:07:17.942Z,9.63
2018-09-20T02:09:46.331Z,9.33
2018-09-20T02:12:14.646Z,8.13
2018-09-20T02:14:42.992Z,9.80
2018-09-20T02:17:11.305Z,9.83
2018-09-20T02:19:39.657Z,10.80
2018-09-20T02:22:08.054Z,9.40
2018-09-20T02:24:36.407Z,10.20
2018-09-20T02:27:04.719Z,9.80
2018-09-20T02:29:33.159Z,12.90
2018-09-20T02:32:01.507Z,9.13
2018-09-20T02:34:29.838Z,9.80
2018-09-20T02:36:58.183Z,9.83
2018-09-20T02:39:26.486Z,11.00
2018-09-20T02:41:54.848Z,9.93
2018-09-20T02:44:23.175Z,11.33
2018-09-20T02:46:51.572Z,12.87
2018-09-20T02:49:20.296Z,15.50
2018-09-20T02:51:48.638Z,10.50
2018-09-20T02:54:17.047Z,12.77
2018-09-20T02:56:45.423Z,11.63
2018-09-20T02:59:13.894Z,7.87
2018-09-20T03:01:42.300Z,8.50
2018-09-20T03:04:10.639Z,9.70
2018-09-20T03:06:38.934Z,9.97
2018-09-20T03:09:09.081Z,10.77
2018-09-20T03:11:37.449Z,7.73
2018-09-20T03:14:06.056Z,9.47
2018-09-20T03:16:34.434Z,11.40
2018-09-20T03:19:02.885Z,11.20
2018-09-20T03:21:31.336Z,8.37
2018-09-20T03:23:59.739Z,11.03
2018-09-20T03:26:28.394Z,11.73
2018-09-20T03:28:56.747Z,10.33
2018-09-20T03:31:25.090Z,9.53
2018-09-20T03:33:53.452Z,9.73
2018-09-20T03:36:21.784Z,12.85
2018-09-20T03:38:50.132Z,10.50
2018-09-20T03:41:18.562Z,11.73
2018-09-20T03:43:46.964Z,11.53
2018-09-20T03:46:15.284Z,15.40
2018-09-20T03:48:43.816Z,13.53
2018-09-20T03:51:12.389Z,9.67
2018-09-20T03:53:41.037Z,14.40
2018-09-20T03:56:09.422Z,13.47
2018-09-20T03:58:37.801Z,13.47
2018-09-20T04:01:06.177Z,9.87
2018-09-20T04:03:34.554Z,14.67
2018-09-20T04:06:02.950Z,7.90
2018-09-20T04:08:31.330Z,13.67
2018-09-20T04:10:59.675Z,11.20
2018-09-20T04:13:28.065Z,13.70
2018-09-20T04:15:56.428Z,8.50
2018-09-20T04:18:24.931Z,9.60
2018-09-20T04:20:53.253Z,8.83
2018-09-20T04:23:21.860Z,10.53
2018-09-20T04:25:50.181Z,13.03
2018-09-20T04:28:18.600Z,12.30
2018-09-20T04:30:46.928Z,12.00
2018-09-20T04:33:15.325Z,9.17
2018-09-20T04:35:43.657Z,9.10
2018-09-20T04:38:12.023Z,13.03
2018-09-20T04:40:40.334Z,13.73
2018-09-20T04:43:08.691Z,11.57
2018-09-20T04:45:37.023Z,11.50
2018-09-20T04:48:05.367Z,14.67
2018-09-20T04:50:33.710Z,18.67
2018-09-20T04:53:02.134Z,15.73
2018-09-20T04:55:30.467Z,16.70
2018-09-20T04:57:58.859Z,11.43
2018-09-20T05:00:27.187Z,13.77
2018-09-20T05:02:55.520Z,15.87
2018-09-20T05:05:23.826Z,17.27
2018-09-20T05:07:52.188Z,12.67
2018-09-20T05:10:20.559Z,15.10
2018-09-20T05:12:48.972Z,17.80
2018-09-20T05:15:17.351Z,17.27
2018-09-20T05:17:45.683Z,13.83
2018-09-20T05:20:14.105Z,13.43
2018-09-20T05:22:42.726Z,18.60
2018-09-20T05:25:18.425Z,10.10
2018-09-20T05:27:46.847Z,12.47
2018-09-20T05:30:15.263Z,14.23
2018-09-20T05:32:43.654Z,17.37
2018-09-20T05:35:12.039Z,14.30
2018-09-20T05:37:40.380Z,15.43
2018-09-20T05:40:08.838Z,16.07
2018-09-20T05:42:37.262Z,15.93
2018-09-20T05:45:06.082Z,14.30
2018-09-20T05:47:35.140Z,17.97
2018-09-20T05:50:03.565Z,16.25
2018-09-20T05:52:32.517Z,19.07
2018-09-20T05:55:01.000Z,12.70
2018-09-20T05:57:29.832Z,16.53
2018-09-20T05:59:58.166Z,10.90
2018-09-20T06:02:27.118Z,14.53
2018-09-20T06:04:55.571Z,16.37
2018-09-20T06:07:23.987Z,16.13
2018-09-20T06:09:52.491Z,12.67
2018-09-20T06:12:21.472Z,14.03
2018-09-20T06:14:49.898Z,20.10
2018-09-20T06:17:18.382Z,18.80
2018-09-20T06:19:46.866Z,20.57
2018-09-20T06:22:15.231Z,17.83
2018-09-20T06:24:43.604Z,18.53
2018-09-20T06:27:12.159Z,13.37
2018-09-20T06:29:40.532Z,18.80
2018-09-20T06:32:08.852Z,16.13
2018-09-20T06:34:37.411Z,14.63
2018-09-20T06:37:06.138Z,16.97
2018-09-20T06:39:34.473Z,14.47
2018-09-20T06:42:02.818Z,15.53
2018-09-20T06:44:31.187Z,16.70
2018-09-20T06:46:59.498Z,14.80
2018-09-20T06:49:27.884Z,15.13
2018-09-20T06:51:56.194Z,17.97
2018-09-20T06:54:45.464Z,15.37
2018-09-20T06:57:13.787Z,12.03
2018-09-20T06:59:42.403Z,14.97
2018-09-20T07:02:10.689Z,19.80
2018-09-20T07:04:45.302Z,22.57
2018-09-20T07:07:13.609Z,23.57
2018-09-20T07:09:42.224Z,18.23
2018-09-20T07:12:10.621Z,20.47
2018-09-20T07:14:39.005Z,17.33
2018-09-20T07:17:07.364Z,22.97
2018-09-20T07:19:35.709Z,16.00
2018-09-20T07:22:04.044Z,18.67
2018-09-20T07:24:32.397Z,17.03
2018-09-20T07:27:00.738Z,14.18
2018-09-20T07:29:29.060Z,19.65
2018-09-20T07:31:57.421Z,13.93
2018-09-20T07:34:25.800Z,15.27
2018-09-20T07:36:54.097Z,17.23
2018-09-20T07:39:22.461Z,13.45
2018-09-20T07:41:50.761Z,11.95
2018-09-20T07:44:19.095Z,16.80
2018-09-20T07:46:47.468Z,16.50
2018-09-20T07:49:15.809Z,12.50
2018-09-20T07:51:44.174Z,14.98
2018-09-20T07:54:12.513Z,18.00
2018-09-20T07:56:40.898Z,16.45
2018-09-20T07:59:09.220Z,11.73
2018-09-20T08:01:37.646Z,15.83
2018-09-20T08:04:05.985Z,10.58
2018-09-20T08:06:34.421Z,13.50
2018-09-20T08:09:02.821Z,11.15
2018-09-20T08:11:31.204Z,13.03
2018-09-20T08:13:59.553Z,10.58
2018-09-20T08:16:27.889Z,12.78
2018-09-20T08:18:59.184Z,11.95
2018-09-20T08:21:27.585Z,10.68
2018-09-20T08:23:55.990Z,13.75
2018-09-20T08:26:24.386Z,13.93
2018-09-20T08:28:52.865Z,12.33
2018-09-20T08:31:21.257Z,11.65
2018-09-20T08:33:49.592Z,12.50
2018-09-20T08:36:18.646Z,9.90
2018-09-20T08:38:46.965Z,13.25
2018-09-20T08:41:15.299Z,12.13
2018-09-20T08:43:43.629Z,12.30
2018-09-20T08:46:12.005Z,12.15
2018-09-20T08:48:40.346Z,12.95
2018-09-20T08:51:08.780Z,10.43
2018-09-20T08:53:37.063Z,10.38
2018-09-20T08:56:05.415Z,14.00
2018-09-20T08:58:33.997Z,10.25
2018-09-20T09:01:03.936Z,12.85
2018-09-20T09:03:32.296Z,14.35
2018-09-20T09:06:01.249Z,11.78
2018-09-20T09:08:29.634Z,13.88
2018-09-20T09:10:58.019Z,9.78
2018-09-20T09:13:26.365Z,13.85
2018-09-20T09:15:54.748Z,12.43
2018-09-20T09:18:23.104Z,11.28
2018-09-20T09:20:52.991Z,15.10
2018-09-20T09:23:27.349Z,13.00
2018-09-20T09:25:55.710Z,12.50
2018-09-20T09:28:24.094Z,11.10
2018-09-20T09:30:52.650Z,14.05
2018-09-20T09:33:20.994Z,12.75
2018-09-20T09:35:49.391Z,13.05
2018-09-20T09:38:17.758Z,13.38
2018-09-20T09:40:46.135Z,12.13
2018-09-20T09:43:14.451Z,13.50
2018-09-20T09:45:42.808Z,12.75
2018-09-20T09:48:11.209Z,11.20
2018-09-20T09:50:39.510Z,8.98
2018-09-20T09:53:07.936Z,9.48
2018-09-20T09:55:36.298Z,9.63
2018-09-20T09:58:04.631Z,9.78
2018-09-20T10:00:35.442Z,13.05
2018-09-20T10:03:03.790Z,10.20
2018-09-20T10:05:32.151Z,18.23
2018-09-20T10:08:00.513Z,10.15
2018-09-20T10:10:28.904Z,11.20
2018-09-20T10:12:57.257Z,20.57
2018-09-20T10:15:25.586Z,11.48
2018-09-20T10:17:53.897Z,15.65
2018-09-20T10:20:22.395Z,17.90
2018-09-20T10:22:50.745Z,13.38
2018-09-20T10:25:19.290Z,13.83
2018-09-20T10:27:47.688Z,12.93
2018-09-20T10:30:16.112Z,10.85
2018-09-20T10:32:44.457Z,11.95
2018-09-20T10:35:12.822Z,9.00
2018-09-20T10:37:41.153Z,15.13
2018-09-20T10:40:09.643Z,12.58
2018-09-20T10:42:38.021Z,11.93
2018-09-20T10:45:06.392Z,12.95
2018-09-20T10:47:34.780Z,12.28
2018-09-20T10:50:03.130Z,7.92
2018-09-20T10:52:31.514Z,11.05
2018-09-20T10:54:59.885Z,13.43
2018-09-20T10:57:28.261Z,14.65
2018-09-20T10:59:56.619Z,14.10
2018-09-20T11:02:24.929Z,11.63
2018-09-20T11:04:53.380Z,10.55
2018-09-20T11:07:21.798Z,10.45
2018-09-20T11:09:50.141Z,8.23
2018-09-20T11:12:18.515Z,22.37
2018-09-20T11:14:46.862Z,13.48
2018-09-20T11:17:15.240Z,11.38
2018-09-20T11:19:43.553Z,8.90
2018-09-20T11:22:11.919Z,10.53
2018-09-20T11:24:40.284Z,11.43
2018-09-20T11:27:08.611Z,11.75
2018-09-20T11:29:37.088Z,16.35
2018-09-20T11:32:05.456Z,10.93
2018-09-20T11:34:33.813Z,10.32
2018-09-20T11:37:02.125Z,13.25
2018-09-20T11:39:30.513Z,13.03
2018-09-20T11:41:58.859Z,9.20
2018-09-20T11:44:27.183Z,10.30
2018-09-20T11:46:55.556Z,10.25
2018-09-20T11:49:23.876Z,10.18
2018-09-20T11:51:52.285Z,9.25
2018-09-20T11:54:20.609Z,8.70
2018-09-20T11:56:48.965Z,10.03
2018-09-20T11:59:17.335Z,9.18
2018-09-20T12:01:45.812Z,9.88
2018-09-20T12:04:14.161Z,12.65
2018-09-20T12:06:42.567Z,10.38
2018-09-20T12:09:11.091Z,12.10
2018-09-20T12:11:39.441Z,9.93
2018-09-20T12:14:07.790Z,7.67
2018-09-20T12:16:36.108Z,8.88
2018-09-20T12:19:04.472Z,7.30
2018-09-20T12:21:32.911Z,8.05
2018-09-20T12:24:01.235Z,9.40
2018-09-20T12:26:29.648Z,9.00
2018-09-20T12:28:57.971Z,8.75
2018-09-20T12:31:34.570Z,8.88
2018-09-20T12:34:02.931Z,9.10
2018-09-20T12:36:31.279Z,8.18
2018-09-20T12:38:59.651Z,10.28
2018-09-20T12:41:28.166Z,10.50
2018-09-20T12:43:56.516Z,9.45
2018-09-20T12:46:25.159Z,15.10
2018-09-20T12:48:55.520Z,10.30
2018-09-20T12:51:24.126Z,8.90
2018-09-20T12:53:59.172Z,6.03
2018-09-20T12:56:27.657Z,7.85
2018-09-20T12:58:57.477Z,8.20
2018-09-20T13:01:27.423Z,10.30
2018-09-20T13:03:56.504Z,8.10
2018-09-20T13:06:28.856Z,10.30
2018-09-20T13:08:57.544Z,10.38
2018-09-20T13:11:28.006Z,11.55
2018-09-20T13:13:58.275Z,5.40
2018-09-20T13:16:32.059Z,8.53
2018-09-20T13:19:00.635Z,11.25
2018-09-20T13:21:29.975Z,8.18
2018-09-20T13:24:02.213Z,6.70
2018-09-20T13:26:31.549Z,9.15
2018-09-20T13:29:00.267Z,8.48
2018-09-20T13:31:32.885Z,8.95
2018-09-20T13:34:01.661Z,7.03
2018-09-20T13:36:31.747Z,7.53
2018-09-20T13:39:00.192Z,8.88
2018-09-20T13:41:28.757Z,8.78
2018-09-20T13:43:57.791Z,10.40
2018-09-20T13:46:26.673Z,10.75
2018-09-20T13:48:55.927Z,9.13
2018-09-20T13:51:26.545Z,6.08
2018-09-20T13:53:54.893Z,8.50
2018-09-20T13:56:25.169Z,7.72
2018-09-20T13:58:55.358Z,8.88
2018-09-20T14:01:23.854Z,9.50
2018-09-20T14:03:53.635Z,12.18
2018-09-20T14:06:22.168Z,8.50
2018-09-20T14:08:51.704Z,11.73
2018-09-20T14:11:20.765Z,7.55
2018-09-20T14:13:49.346Z,8.43
2018-09-20T14:16:18.266Z,10.13
2018-09-20T14:18:47.652Z,6.92
2018-09-20T14:21:18.755Z,9.33
2018-09-20T14:23:48.813Z,9.98
2018-09-20T14:26:17.900Z,7.15
2018-09-20T14:28:46.334Z,7.20
2018-09-20T14:31:14.905Z,7.53
2018-09-20T14:33:43.475Z,6.12
2018-09-20T14:36:13.803Z,8.48
2018-09-20T14:38:43.006Z,9.18
2018-09-20T14:41:13.389Z,6.83
2018-09-20T14:43:42.343Z,6.78
2018-09-20T14:46:16.414Z,6.62
2018-09-20T14:48:45.449Z,5.83
2018-09-20T14:51:15.220Z,8.90
2018-09-20T14:53:44.807Z,7.40
2018-09-20T14:56:13.184Z,7.72
2018-09-20T14:58:41.572Z,7.62
2018-09-20T15:01:09.956Z,6.40
2018-09-20T15:03:38.306Z,7.70
2018-09-20T15:06:06.754Z,7.80
2018-09-20T15:08:35.116Z,7.53
2018-09-20T15:11:03.617Z,7.25
2018-09-20T15:13:32.161Z,8.95
2018-09-20T15:16:00.666Z,6.42
2018-09-20T15:18:29.902Z,8.58
2018-09-20T15:20:58.202Z,7.58
2018-09-20T15:23:26.671Z,13.98
2018-09-20T15:25:55.255Z,13.65
2018-09-20T15:28:23.746Z,5.50
2018-09-20T15:30:52.492Z,6.80
2018-09-20T15:33:33.293Z,9.00
2018-09-20T15:36:29.223Z,7.37
2018-09-20T15:39:03.219Z,5.92
2018-09-20T15:41:31.674Z,8.33
2018-09-20T15:44:00.459Z,9.45
2018-09-20T15:46:29.074Z,7.35
2018-09-20T15:48:57.425Z,7.40
2018-09-20T15:51:25.878Z,7.00
2018-09-20T15:53:55.543Z,6.65
2018-09-20T15:56:23.926Z,5.33
2018-09-20T15:58:52.358Z,8.48
2018-09-20T16:01:20.870Z,8.38
2018-09-20T16:03:49.382Z,7.33
2018-09-20T16:06:18.141Z,8.23
2018-09-20T16:08:47.748Z,7.95
2018-09-20T16:11:17.327Z,7.58
2018-09-20T16:13:46.066Z,8.98
2018-09-20T16:16:14.551Z,8.58
2018-09-20T16:18:43.062Z,6.50
2018-09-20T16:21:17.594Z,6.03
2018-09-20T16:23:46.155Z,7.60
2018-09-20T16:26:14.754Z,7.62
2018-09-20T16:28:56.160Z,9.38
2018-09-20T16:31:51.964Z,7.45
2018-09-20T16:35:32.150Z,7.03
2018-09-20T16:38:28.331Z,6.70
2018-09-20T16:40:59.471Z,8.55
2018-09-20T16:43:29.949Z,9.95
2018-09-20T16:46:00.590Z,7.90
2018-09-20T16:48:29.197Z,7.90
2018-09-20T16:50:57.781Z,7.05
2018-09-20T16:56:18.902Z,85.25
2018-09-20T16:58:48.391Z,61.33
2018-09-20T17:04:05.491Z,65.20
2018-09-20T17:06:35.083Z,13.93
2018-09-20T17:23:27.603Z,8.30
2018-09-20T17:25:56.187Z,10.18
2018-09-20T17:28:24.819Z,8.65
2018-09-20T17:30:53.272Z,7.70
2018-09-20T17:33:28.468Z,5.85
2018-09-20T17:35:57.103Z,10.90
2018-09-20T17:38:25.990Z,9.85
2018-09-20T17:41:12.008Z,10.30
2018-09-20T17:43:53.766Z,11.88
2018-09-20T17:46:22.352Z,9.60
2018-09-20T17:48:50.860Z,7.35
2018-09-20T17:51:20.516Z,10.43
2018-09-20T17:53:49.389Z,8.85
2018-09-20T17:56:18.212Z,9.18
2018-09-20T17:58:47.140Z,8.00
2018-09-20T18:01:15.567Z,10.50
2018-09-20T18:03:44.014Z,6.50
2018-09-20T18:06:12.473Z,7.95
2018-09-20T18:08:40.883Z,6.70
2018-09-20T18:11:10.721Z,7.97
2018-09-20T18:13:45.499Z,8.68
2018-09-20T18:16:17.229Z,8.08
2018-09-20T18:19:02.325Z,10.53
2018-09-20T18:21:30.788Z,9.08
2018-09-20T18:24:11.772Z,9.63
2018-09-20T18:26:40.795Z,8.03
2018-09-20T18:29:09.444Z,7.87
2018-09-20T18:31:39.054Z,8.13
2018-09-20T18:34:08.324Z,11.55
2018-09-20T18:36:36.701Z,10.30
2018-09-20T18:39:10.261Z,9.98
2018-09-20T18:41:40.047Z,6.72
2018-09-20T18:44:09.381Z,6.80
2018-09-20T18:46:37.876Z,7.25
2018-09-20T18:49:14.767Z,7.40
2018-09-20T18:51:47.835Z,9.05
2018-09-20T18:54:20.251Z,7.65
2018-09-20T18:56:48.679Z,8.83
2018-09-20T18:59:17.068Z,8.00
2018-09-20T19:01:45.496Z,6.53
2018-09-20T19:04:14.128Z,11.55
2018-09-20T19:06:46.126Z,8.33
2018-09-20T19:09:14.803Z,8.85
2018-09-20T19:11:43.625Z,12.80
2018-09-20T19:14:13.594Z,10.10
2018-09-20T19:16:43.536Z,9.58
2018-09-20T19:19:20.113Z,12.65
2018-09-20T19:21:48.610Z,10.15
2018-09-20T19:24:17.210Z,11.50
2018-09-20T19:26:46.104Z,7.92
2018-09-20T19:29:15.064Z,9.80
2018-09-20T19:31:44.949Z,10.20
2018-09-20T19:34:13.694Z,10.30
2018-09-20T19:36:43.293Z,11.15
2018-09-20T19:39:17.329Z,9.65
2018-09-20T19:41:46.486Z,8.43
2018-09-20T19:44:15.145Z,9.48
2018-09-20T19:46:44.250Z,9.28
2018-09-20T19:49:12.963Z,8.95
2018-09-20T19:51:43.561Z,8.30
2018-09-20T19:54:12.420Z,9.63
2018-09-20T19:56:41.228Z,7.35
2018-09-20T19:59:10.702Z,9.53
2018-09-20T20:01:40.237Z,9.43
2018-09-20T20:04:09.121Z,8.55
2018-09-20T20:06:37.967Z,10.45
2018-09-20T20:09:10.309Z,8.18
2018-09-20T20:11:39.072Z,9.48
2018-09-20T20:14:09.722Z,10.50
2018-09-20T20:16:38.655Z,7.95
2018-09-20T20:19:07.180Z,7.17
2018-09-20T20:21:35.654Z,8.95
2018-09-20T20:24:04.299Z,6.62
2018-09-20T20:26:32.634Z,6.12
2018-09-20T20:29:01.249Z,8.98
2018-09-20T20:31:29.619Z,9.73
2018-09-20T20:33:57.930Z,10.65
2018-09-20T20:36:26.766Z,8.25
2018-09-20T20:38:55.380Z,7.87
2018-09-20T20:41:23.716Z,8.78
2018-09-20T20:43:52.450Z,9.98
2018-09-20T20:46:20.758Z,8.28
2018-09-20T20:48:49.149Z,11.00
2018-09-20T20:51:18.523Z,8.15
2018-09-20T20:53:46.943Z,6.95
2018-09-20T20:56:15.368Z,10.05
2018-09-20T20:58:43.768Z,7.55
2018-09-20T21:01:20.702Z,11.12
2018-09-20T21:03:50.721Z,8.98
2018-09-20T21:06:19.758Z,9.23
2018-09-20T21:08:48.269Z,8.18
2018-09-20T21:11:17.184Z,7.17
2018-09-20T21:13:45.656Z,8.28
2018-09-20T21:16:14.062Z,9.80
2018-09-20T21:18:42.379Z,8.78
2018-09-20T21:21:10.875Z,9.58
2018-09-20T21:23:39.200Z,9.50
2018-09-20T21:26:07.682Z,8.75
2018-09-20T21:28:36.042Z,10.17
2018-09-20T21:31:04.481Z,10.50
2018-09-20T21:33:32.840Z,7.70
2018-09-20T21:36:01.344Z,8.48
2018-09-20T21:38:29.763Z,9.63
2018-09-20T21:41:32.605Z,9.90
2018-09-20T21:44:00.939Z,10.50
2018-09-20T21:46:29.339Z,10.13
2018-09-20T21:48:57.706Z,8.37
2018-09-20T21:51:26.103Z,10.77
2018-09-20T21:53:54.442Z,8.53
2018-09-20T21:56:22.831Z,10.30
2018-09-20T21:58:51.189Z,8.20
2018-09-20T22:01:19.505Z,9.97
2018-09-20T22:03:47.876Z,9.27
2018-09-20T22:06:16.311Z,8.10
2018-09-20T22:08:44.947Z,10.47
2018-09-20T22:11:13.497Z,9.10
2018-09-20T22:13:41.853Z,9.20
2018-09-20T22:16:10.387Z,11.80
2018-09-20T22:18:38.737Z,10.08
2018-09-20T22:21:07.108Z,8.93
2018-09-20T22:23:35.471Z,11.40
2018-09-20T22:26:03.871Z,9.10
2018-09-20T22:28:32.173Z,12.03
2018-09-20T22:31:00.503Z,8.27
2018-09-20T22:33:28.851Z,9.13
2018-09-20T22:35:58.024Z,10.33
2018-09-20T22:38:26.397Z,8.97
2018-09-20T22:40:54.724Z,8.30
2018-09-20T22:43:23.063Z,9.27
2018-09-20T22:45:51.416Z,9.10
2018-09-20T22:48:19.781Z,7.13
2018-09-20T22:50:48.111Z,9.07
2018-09-20T22:53:16.464Z,8.23
2018-09-20T22:55:44.793Z,8.83
2018-09-20T22:58:13.117Z,13.77
2018-09-20T23:00:41.472Z,9.37
2018-09-20T23:03:16.420Z,7.93
2018-09-20T23:05:44.741Z,9.80
2018-09-20T23:08:13.112Z,10.43
2018-09-20T23:10:41.465Z,7.57
2018-09-20T23:13:09.809Z,12.30
2018-09-20T23:15:38.142Z,7.63
2018-09-20T23:18:06.547Z,8.93
2018-09-20T23:20:35.081Z,8.27
2018-09-20T23:23:03.518Z,10.10
2018-09-20T23:25:31.896Z,6.93
2018-09-20T23:28:00.273Z,9.93
2018-09-20T23:30:28.633Z,8.33
2018-09-20T23:32:56.984Z,8.03
2018-09-20T23:35:25.340Z,8.77
2018-09-20T23:37:53.661Z,8.77
2018-09-20T23:40:22.017Z,8.97
2018-09-20T23:42:50.433Z,11.13
2018-09-20T23:45:18.782Z,7.17
2018-09-20T23:47:47.142Z,8.53
2018-09-20T23:50:15.665Z,10.40
2018-09-20T23:52:44.020Z,9.87
2018-09-20T23:55:12.365Z,7.60
2018-09-20T23:57:40.707Z,8.20
